createdAt,value
2023-04-09T00:00:16.562Z,4.30
2023-04-09T00:02:43.375Z,4.30
2023-04-09T00:05:10.303Z,4.20
2023-04-09T00:07:36.925Z,4.30
2023-04-09T00:10:03.720Z,4.30
2023-04-09T00:12:30.756Z,4.30
2023-04-09T00:14:57.705Z,4.20
2023-04-09T00:17:24.625Z,4.20
2023-04-09T00:19:52.200Z,4.20
2023-04-09T00:22:19.012Z,4.10
2023-04-09T00:24:45.639Z,4.10
2023-04-09T00:27:12.367Z,4.10
2023-04-09T00:29:39.148Z,4.10
2023-04-09T00:32:06.337Z,4.10
2023-04-09T00:34:33.104Z,4.10
2023-04-09T00:36:59.804Z,4.10
2023-04-09T00:39:26.443Z,4.10
2023-04-09T00:42:00.129Z,4.20
2023-04-09T00:44:26.831Z,4.20
2023-04-09T00:46:54.861Z,4.20
2023-04-09T00:49:21.904Z,4.20
2023-04-09T00:51:48.793Z,4.20
2023-04-09T00:54:16.199Z,4.20
2023-04-09T00:56:42.905Z,4.20
2023-04-09T00:59:12.102Z,4.10
2023-04-09T01:01:38.767Z,4.20
2023-04-09T01:04:07.022Z,4.20
2023-04-09T01:06:45.462Z,4.20
2023-04-09T01:09:21.875Z,4.30
2023-04-09T01:11:59.464Z,4.20
2023-04-09T01:14:26.382Z,4.20
2023-04-09T01:17:03.215Z,4.20
2023-04-09T01:19:38.190Z,4.20
2023-04-09T01:22:07.019Z,4.20
2023-04-09T01:24:51.881Z,4.20
2023-04-09T01:27:18.927Z,4.20
2023-04-09T01:29:47.207Z,4.20
2023-04-09T01:32:16.185Z,4.20
2023-04-09T01:34:44.954Z,4.20
2023-04-09T01:37:12.472Z,4.20
2023-04-09T01:39:39.416Z,4.20
2023-04-09T01:42:09.604Z,4.10
2023-04-09T01:44:38.213Z,4.10
2023-04-09T01:47:05.345Z,4.20
2023-04-09T01:49:50.315Z,4.20
2023-04-09T01:52:18.114Z,4.20
2023-04-09T01:54:45.152Z,4.10
2023-04-09T01:57:11.779Z,4.10
2023-04-09T01:59:38.409Z,4.10
2023-04-09T02:02:11.396Z,4.00
2023-04-09T02:04:43.865Z,4.00
2023-04-09T02:07:27.545Z,3.90
2023-04-09T02:09:54.484Z,3.90
2023-04-09T02:12:21.643Z,3.90
2023-04-09T02:14:51.188Z,4.00
2023-04-09T02:17:18.294Z,4.00
2023-04-09T02:19:45.703Z,4.00
2023-04-09T02:22:13.022Z,4.00
2023-04-09T02:24:40.545Z,4.10
2023-04-09T02:27:07.820Z,4.10
2023-04-09T02:29:34.798Z,4.10
2023-04-09T02:32:01.510Z,4.10
2023-04-09T02:34:28.221Z,4.10
2023-04-09T02:36:54.948Z,4.10
2023-04-09T02:39:21.677Z,4.20
2023-04-09T02:41:48.335Z,4.30
2023-04-09T02:44:15.162Z,4.20
2023-04-09T02:46:42.286Z,4.20
2023-04-09T02:49:09.075Z,4.30
2023-04-09T02:51:36.045Z,4.30
2023-04-09T02:54:03.682Z,4.30
2023-04-09T02:56:30.448Z,4.30
2023-04-09T02:58:57.102Z,4.30
2023-04-09T03:01:23.868Z,4.30
2023-04-09T03:03:51.151Z,4.30
2023-04-09T03:06:18.671Z,4.30
2023-04-09T03:08:45.585Z,4.30
2023-04-09T03:11:12.312Z,4.30
2023-04-09T03:13:38.980Z,4.30
2023-04-09T03:16:05.888Z,4.40
2023-04-09T03:18:32.638Z,4.40
2023-04-09T03:20:59.272Z,4.40
2023-04-09T03:23:25.960Z,4.40
2023-04-09T03:26:05.430Z,4.40
2023-04-09T03:28:32.092Z,4.40
2023-04-09T03:30:58.826Z,4.40
2023-04-09T03:33:28.473Z,4.40
2023-04-09T03:35:55.282Z,4.40
2023-04-09T03:38:22.073Z,4.50
2023-04-09T03:40:49.117Z,4.50
2023-04-09T03:43:16.154Z,4.40
2023-04-09T03:45:42.903Z,4.40
2023-04-09T03:48:09.545Z,4.30
2023-04-09T03:50:39.893Z,4.40
2023-04-09T03:53:06.932Z,4.40
2023-04-09T03:55:33.806Z,4.40
2023-04-09T03:58:00.524Z,4.40
2023-04-09T04:00:27.264Z,4.40
2023-04-09T04:02:54.201Z,4.40
2023-04-09T04:05:22.756Z,4.40
2023-04-09T04:07:49.397Z,4.40
2023-04-09T04:10:16.141Z,4.40
2023-04-09T04:12:42.824Z,4.30
2023-04-09T04:15:09.914Z,4.40
2023-04-09T04:17:36.536Z,4.30
2023-04-09T04:20:04.014Z,4.40
2023-04-09T04:22:30.716Z,4.30
2023-04-09T04:24:57.402Z,4.30
2023-04-09T04:27:26.898Z,4.30
2023-04-09T04:29:53.622Z,4.30
2023-04-09T04:32:20.458Z,4.30
2023-04-09T04:34:48.959Z,4.30
2023-04-09T04:37:15.716Z,4.30
2023-04-09T04:39:42.312Z,4.30
2023-04-09T04:42:08.987Z,4.30
2023-04-09T04:44:35.670Z,4.40
2023-04-09T04:47:02.352Z,4.40
2023-04-09T04:49:29.019Z,4.40
2023-04-09T04:51:55.743Z,4.40
2023-04-09T04:54:22.345Z,4.40
2023-04-09T04:56:48.989Z,4.40
2023-04-09T04:59:15.756Z,4.50
2023-04-09T05:01:42.631Z,4.50
2023-04-09T05:04:09.424Z,4.50
2023-04-09T05:06:36.210Z,4.50
2023-04-09T05:09:02.848Z,4.50
2023-04-09T05:11:29.450Z,4.50
2023-04-09T05:13:56.581Z,4.50
2023-04-09T05:16:23.763Z,4.50
2023-04-09T05:18:50.927Z,4.50
2023-04-09T05:21:17.859Z,4.40
2023-04-09T05:23:44.487Z,4.40
2023-04-09T05:26:11.429Z,4.40
2023-04-09T05:28:38.563Z,4.40
2023-04-09T05:31:05.441Z,4.40
2023-04-09T05:33:37.743Z,4.40
2023-04-09T05:36:05.775Z,4.40
2023-04-09T05:38:32.447Z,4.50
2023-04-09T05:40:59.119Z,4.50
2023-04-09T05:43:25.824Z,4.50
2023-04-09T05:45:52.553Z,4.50
2023-04-09T05:48:19.723Z,4.50
2023-04-09T05:50:54.605Z,4.40
2023-04-09T05:53:22.632Z,4.40
2023-04-09T05:55:53.408Z,4.50
2023-04-09T05:58:20.116Z,4.50
2023-04-09T06:00:46.829Z,4.50
2023-04-09T06:03:13.524Z,4.50
2023-04-09T06:05:40.485Z,4.50
2023-04-09T06:08:07.387Z,4.60
2023-04-09T06:10:34.353Z,4.60
2023-04-09T06:13:00.980Z,4.70
2023-04-09T06:15:27.843Z,4.80
2023-04-09T06:17:54.582Z,4.90
2023-04-09T06:20:21.876Z,5.00
2023-04-09T06:22:48.520Z,5.00
2023-04-09T06:25:15.168Z,5.10
2023-04-09T06:27:42.164Z,5.20
2023-04-09T06:30:09.203Z,5.20
2023-04-09T06:32:43.686Z,5.20
2023-04-09T06:35:18.003Z,5.20
2023-04-09T06:37:44.621Z,5.20
2023-04-09T06:40:11.671Z,5.30
2023-04-09T06:42:38.348Z,5.30
2023-04-09T06:45:08.485Z,5.30
2023-04-09T06:47:37.944Z,5.30
2023-04-09T06:50:04.935Z,5.30
2023-04-09T06:52:31.589Z,5.40
2023-04-09T06:54:58.222Z,5.40
2023-04-09T06:57:25.521Z,5.40
2023-04-09T06:59:52.160Z,5.40
2023-04-09T07:02:18.943Z,5.40
2023-04-09T07:04:45.723Z,5.40
2023-04-09T07:07:12.784Z,5.40
2023-04-09T07:09:39.596Z,5.40
2023-04-09T07:12:06.441Z,5.40
2023-04-09T07:14:33.132Z,5.40
2023-04-09T07:16:59.831Z,5.40
2023-04-09T07:19:26.464Z,5.40
2023-04-09T07:21:53.078Z,5.50
2023-04-09T07:24:19.719Z,5.50
2023-04-09T07:26:46.657Z,5.60
2023-04-09T07:29:13.291Z,5.60
2023-04-09T07:31:40.111Z,5.60
2023-04-09T07:34:07.038Z,5.70
2023-04-09T07:36:33.757Z,5.70
2023-04-09T07:39:00.347Z,5.80
2023-04-09T07:41:27.082Z,5.80
2023-04-09T07:43:53.693Z,5.90
2023-04-09T07:46:21.779Z,5.80
2023-04-09T07:48:50.116Z,5.90
2023-04-09T07:51:17.128Z,5.90
2023-04-09T07:53:43.764Z,6.10
2023-04-09T07:56:10.433Z,6.10
2023-04-09T07:58:38.106Z,6.10
2023-04-09T08:01:04.977Z,6.10
2023-04-09T08:03:32.164Z,6.10
2023-04-09T08:05:59.035Z,6.00
2023-04-09T08:08:25.676Z,6.00
2023-04-09T08:10:52.363Z,6.00
2023-04-09T08:13:19.009Z,6.10
2023-04-09T08:15:45.673Z,6.10
2023-04-09T08:18:12.944Z,6.20
2023-04-09T08:20:44.958Z,6.20
2023-04-09T08:23:12.014Z,6.30
2023-04-09T08:25:38.688Z,6.30
2023-04-09T08:28:05.577Z,6.40
2023-04-09T08:30:34.228Z,6.40
2023-04-09T08:33:01.520Z,6.40
2023-04-09T08:35:30.292Z,6.50
2023-04-09T08:37:57.622Z,6.50
2023-04-09T08:40:24.713Z,6.60
2023-04-09T08:42:54.202Z,6.60
2023-04-09T08:45:21.013Z,6.60
2023-04-09T08:47:48.555Z,6.70
2023-04-09T08:50:15.779Z,6.70
2023-04-09T08:52:42.781Z,6.70
2023-04-09T08:55:11.582Z,6.70
2023-04-09T08:57:40.877Z,6.70
2023-04-09T09:00:08.458Z,6.80
2023-04-09T09:02:35.689Z,6.80
2023-04-09T09:05:02.506Z,6.90
2023-04-09T09:07:31.882Z,6.80
2023-04-09T09:09:59.519Z,6.90
2023-04-09T09:12:32.315Z,7.00
2023-04-09T09:14:59.046Z,7.00
2023-04-09T09:17:26.360Z,7.00
2023-04-09T09:19:53.162Z,7.10
2023-04-09T09:22:19.874Z,7.10
2023-04-09T09:24:50.771Z,7.20
2023-04-09T09:27:33.310Z,7.10
2023-04-09T09:30:01.276Z,7.20
2023-04-09T09:32:27.999Z,7.20
2023-04-09T09:35:21.073Z,7.20
2023-04-09T09:37:48.044Z,7.30
2023-04-09T09:40:26.688Z,7.30
2023-04-09T09:42:59.794Z,7.40
2023-04-09T09:45:26.616Z,7.40
2023-04-09T09:47:54.303Z,7.40
2023-04-09T09:50:23.651Z,7.50
2023-04-09T09:52:50.901Z,7.60
2023-04-09T09:55:18.510Z,7.60
2023-04-09T09:57:47.241Z,7.50
2023-04-09T10:00:14.530Z,7.50
2023-04-09T10:02:44.807Z,7.40
2023-04-09T10:05:11.534Z,7.40
2023-04-09T10:07:38.629Z,7.30
2023-04-09T10:10:06.094Z,7.30
2023-04-09T10:12:33.009Z,7.30
2023-04-09T10:15:04.543Z,7.20
2023-04-09T10:17:32.449Z,7.20
2023-04-09T10:20:10.446Z,7.10
2023-04-09T10:22:37.584Z,7.10
2023-04-09T10:25:04.666Z,7.20
2023-04-09T10:27:31.351Z,7.20
2023-04-09T10:30:00.118Z,7.20
2023-04-09T10:32:28.333Z,7.20
2023-04-09T10:37:48.265Z,7.30
2023-04-09T10:40:19.397Z,7.30
2023-04-09T10:42:46.796Z,7.30
2023-04-09T10:45:14.757Z,7.30
2023-04-09T10:47:46.419Z,7.30
2023-04-09T10:50:26.985Z,7.30
2023-04-09T10:52:54.649Z,7.30
2023-04-09T10:55:31.495Z,7.30
2023-04-09T10:57:58.458Z,7.40
2023-04-09T11:00:26.149Z,7.40
2023-04-09T11:03:12.660Z,7.40
2023-04-09T11:05:58.682Z,7.50
2023-04-09T11:08:28.745Z,7.50
2023-04-09T11:10:58.388Z,7.50
2023-04-09T11:13:27.704Z,7.50
2023-04-09T11:15:55.878Z,7.50
2023-04-09T11:18:30.000Z,7.40
2023-04-09T11:21:10.270Z,7.50
2023-04-09T11:34:13.691Z,7.30
2023-04-09T13:09:48.981Z,9.10
2023-04-09T13:12:21.942Z,9.30
2023-04-09T13:14:49.078Z,9.40
2023-04-09T13:17:16.214Z,9.40
2023-04-09T13:20:02.307Z,9.50
2023-04-09T13:23:12.882Z,9.70
2023-04-09T13:25:39.672Z,10.10
2023-04-09T13:28:06.563Z,10.30
2023-04-09T13:30:33.285Z,10.50
2023-04-09T13:33:00.075Z,10.60
2023-04-09T13:35:27.276Z,10.10
2023-04-09T13:37:54.078Z,9.70
2023-04-09T13:40:20.773Z,9.40
2023-04-09T13:42:47.486Z,9.30
2023-04-09T13:45:14.280Z,9.30
2023-04-09T13:47:43.433Z,9.40
2023-04-09T13:50:10.605Z,9.60
2023-04-09T13:52:39.230Z,9.70
2023-04-09T13:55:06.390Z,9.90
2023-04-09T13:57:36.469Z,9.90
2023-04-09T14:00:05.970Z,10.00
2023-04-09T14:02:33.029Z,10.10
2023-04-09T14:05:00.022Z,10.10
2023-04-09T14:07:26.691Z,10.20
2023-04-09T14:09:53.314Z,10.30
2023-04-09T14:12:20.311Z,10.20
2023-04-09T14:14:47.082Z,10.20
2023-04-09T14:17:13.732Z,10.50
2023-04-09T14:19:42.743Z,10.80
2023-04-09T14:22:10.397Z,11.10
2023-04-09T14:24:40.216Z,11.50
2023-04-09T14:27:07.742Z,11.60
2023-04-09T14:29:34.576Z,11.40
2023-04-09T14:32:01.323Z,11.00
2023-04-09T14:34:31.476Z,10.80
2023-04-09T14:36:58.222Z,10.50
2023-04-09T14:39:30.288Z,10.40
2023-04-09T14:41:57.399Z,10.40
2023-04-09T14:44:26.971Z,10.30
2023-04-09T14:46:55.122Z,10.20
2023-04-09T14:49:22.084Z,10.20
2023-04-09T14:51:48.916Z,10.10
2023-04-09T14:54:16.797Z,10.00
2023-04-09T15:17:46.545Z,10.40
2023-04-09T15:20:13.958Z,10.30
2023-04-09T15:23:20.259Z,10.30
2023-04-09T15:29:29.621Z,10.00
2023-04-09T15:32:02.531Z,9.90
2023-04-09T15:34:52.008Z,9.70
2023-04-09T15:37:25.945Z,9.60
2023-04-09T15:40:17.216Z,9.50
2023-04-09T15:42:51.333Z,9.50
2023-04-09T15:48:49.857Z,9.50
2023-04-09T15:57:56.530Z,9.30
2023-04-09T16:03:52.300Z,9.40
2023-04-09T16:12:51.540Z,9.30
2023-04-09T16:15:20.614Z,9.30
2023-04-09T16:36:26.338Z,9.30
2023-04-09T16:42:01.677Z,9.40
2023-04-09T16:44:36.578Z,9.40
2023-04-09T16:47:03.435Z,9.40
2023-04-09T16:59:57.951Z,11.10
2023-04-09T17:02:45.834Z,10.60
2023-04-09T17:08:32.049Z,9.80
2023-04-09T17:11:25.002Z,9.40
2023-04-09T17:13:56.253Z,9.00
2023-04-09T17:17:27.165Z,8.70
2023-04-09T17:28:43.824Z,8.00
2023-04-09T17:45:32.564Z,7.50
2023-04-09T17:47:59.975Z,7.30
2023-04-09T17:50:27.332Z,7.20
2023-04-09T17:52:54.013Z,7.10
2023-04-09T17:55:20.730Z,7.00
2023-04-09T17:57:47.772Z,6.90
2023-04-09T18:00:14.862Z,6.80
2023-04-09T18:02:43.580Z,6.80
2023-04-09T18:05:10.790Z,6.70
2023-04-09T18:07:38.631Z,6.60
2023-04-09T18:10:05.635Z,6.60
2023-04-09T18:12:32.748Z,6.50
2023-04-09T18:14:59.376Z,6.50
2023-04-09T18:17:26.454Z,6.40
2023-04-09T18:19:53.825Z,6.40
2023-04-09T18:22:20.510Z,6.30
2023-04-09T18:24:47.137Z,6.30
2023-04-09T18:27:13.857Z,6.20
2023-04-09T18:29:40.557Z,6.20
2023-04-09T18:32:07.250Z,6.10
2023-04-09T18:34:38.139Z,6.00
2023-04-09T18:37:04.849Z,5.90
2023-04-09T18:39:31.712Z,5.90
2023-04-09T18:41:58.539Z,5.80
2023-04-09T18:44:25.213Z,5.70
2023-04-09T18:50:33.599Z,5.50
2023-04-09T19:01:21.771Z,5.20
2023-04-09T19:03:49.912Z,5.20
2023-04-09T19:06:55.763Z,5.10
2023-04-09T19:10:33.906Z,5.00
2023-04-09T19:20:01.080Z,4.60
2023-04-09T19:39:41.822Z,4.40
2023-04-09T19:42:08.576Z,4.30
2023-04-09T19:47:42.960Z,4.30
2023-04-09T19:50:10.026Z,4.20
2023-04-09T19:52:37.787Z,4.10
2023-04-09T19:55:08.311Z,4.10
2023-04-09T19:57:39.566Z,4.00
2023-04-09T20:00:08.821Z,3.80
2023-04-09T20:02:40.894Z,3.80
2023-04-09T20:05:09.338Z,3.70
2023-04-09T20:07:36.398Z,3.70
2023-04-09T20:10:04.600Z,3.70
2023-04-09T20:12:31.518Z,3.80
2023-04-09T20:14:58.680Z,3.80
2023-04-09T20:17:25.633Z,3.80
2023-04-09T20:19:56.566Z,3.70
2023-04-09T20:22:23.938Z,3.70
2023-04-09T20:24:50.843Z,3.70
2023-04-09T20:27:23.319Z,3.70
2023-04-09T20:30:41.207Z,3.70
2023-04-09T20:36:33.317Z,3.50
2023-04-09T20:39:05.821Z,3.50
2023-04-09T20:42:29.732Z,3.50
2023-04-09T20:44:33.845Z,3.50
2023-04-09T20:47:08.382Z,3.60
2023-04-09T20:50:23.567Z,3.50
2023-04-09T20:52:49.730Z,3.50
2023-04-09T20:55:16.712Z,3.40
2023-04-09T20:57:43.875Z,3.50
2023-04-09T21:00:11.072Z,3.50
2023-04-09T21:02:40.648Z,3.50
2023-04-09T21:05:21.881Z,3.50
2023-04-09T21:10:47.758Z,3.40
2023-04-09T21:13:14.438Z,3.40
2023-04-09T21:15:44.976Z,3.50
2023-04-09T21:18:11.721Z,3.40
2023-04-09T21:20:43.853Z,3.30
2023-04-09T21:23:13.237Z,3.20
2023-04-09T21:25:42.481Z,3.20
2023-04-09T21:28:11.264Z,3.30
2023-04-09T21:30:42.327Z,3.40
2023-04-09T21:33:30.133Z,3.50
2023-04-09T21:38:52.165Z,3.60
2023-04-09T21:41:28.346Z,3.60
2023-04-09T21:50:31.051Z,3.60
2023-04-09T21:53:43.106Z,3.60
2023-04-09T21:56:59.895Z,3.60
2023-04-09T21:59:53.155Z,3.60
2023-04-09T22:02:43.046Z,3.60
2023-04-09T22:19:20.426Z,3.60
2023-04-09T22:21:50.566Z,3.50
2023-04-09T22:24:23.245Z,3.50
2023-04-09T22:26:59.155Z,3.50
2023-04-09T22:29:26.382Z,3.50
2023-04-09T22:32:37.769Z,3.50
2023-04-09T22:38:55.199Z,3.60
2023-04-09T22:41:22.909Z,3.70
2023-04-09T22:43:50.384Z,3.70
2023-04-09T22:46:17.151Z,3.80
2023-04-09T22:48:46.631Z,3.80
2023-04-09T22:51:13.826Z,3.90
2023-04-09T22:53:40.484Z,4.00
2023-04-09T22:56:07.321Z,4.00
2023-04-09T22:58:34.020Z,4.00
2023-04-09T23:01:00.932Z,4.00
2023-04-09T23:03:30.386Z,4.10
2023-04-09T23:05:57.125Z,4.10
2023-04-09T23:08:23.815Z,4.10
2023-04-09T23:10:50.500Z,4.00
2023-04-09T23:13:18.145Z,3.90
2023-04-09T23:15:44.912Z,3.80
2023-04-09T23:18:11.592Z,3.70
2023-04-09T23:20:38.334Z,3.60
2023-04-09T23:23:05.066Z,3.50
2023-04-09T23:25:31.704Z,3.50
2023-04-09T23:27:58.491Z,3.40
2023-04-09T23:30:25.342Z,3.30
2023-04-09T23:32:57.465Z,3.20
2023-04-09T23:35:24.341Z,3.30
2023-04-09T23:37:51.320Z,3.30
2023-04-09T23:40:18.135Z,3.20
2023-04-09T23:42:45.093Z,3.20
2023-04-09T23:45:11.756Z,3.20
2023-04-09T23:47:38.365Z,3.20
2023-04-09T23:50:06.110Z,3.10
2023-04-09T23:52:37.172Z,3.10
2023-04-09T23:55:04.663Z,3.20
2023-04-09T23:57:31.481Z,3.30
2023-04-09T23:59:58.805Z,3.40
